Time;durP1;ratioP1;P1;durP2;ratioP2;P2;SDS_P1;SDS_P2;PMS_P1;PMS_P2;Temp;Humidity;BMP_temperature;BMP_pressure;BME280_temperature;BME280_humidity;BME280_pressure;Samples;Min_cycle;Max_cycle;Signal;HPM_P1;HPM_P2
2021/04/03 00:00:35;;;;;;;;;;;;;;;4.70;73.23;100152.23;115218;1204;21670;-56
2021/04/03 00:03:16;;;;;;;;;;;;;;;4.62;73.34;100153.67;115191;1204;24841;-57
2021/04/03 00:05:44;;;;;;;;;;;;;;;4.55;73.91;100160.18;115160;1205;21608;-58
2021/04/03 00:08:12;;;;;;;;;;;;;;;4.46;74.23;100164.82;115147;1205;21589;-60
2021/04/03 00:10:41;;;;;;;;;;;;;;;4.34;74.36;100165.57;115136;1205;21617;-61
2021/04/03 00:13:09;;;;;;;;;;;;;;;4.22;75.24;100172.59;115210;1205;21669;-60
2021/04/03 00:15:36;;;;;;;;;;;;;;;4.12;75.32;100173.67;115094;1204;22006;-61
2021/04/03 00:18:05;;;;;;;;;;;;;;;3.99;75.21;100164.58;115168;1204;21608;-60
2021/04/03 00:20:33;;;;;;;;;;;;;;;3.89;75.17;100163.64;115297;1204;21600;-61
2021/04/03 00:23:02;;;;;;;;;;;;;;;3.84;75.25;100166.17;115152;1205;21636;-59
2021/04/03 00:25:30;;;;;;;;;;;;;;;3.80;75.40;100165.48;115374;1205;21605;-59
2021/04/03 00:27:58;;;;;;;;;;;;;;;3.78;75.83;100170.67;116181;1204;21608;-59
2021/04/03 00:30:26;;;;;;;;;;;;;;;3.78;75.74;100159.63;115190;1199;23374;-59
2021/04/03 00:32:55;;;;;;;;;;;;;;;3.78;75.55;100163.17;115406;1204;24318;-59
2021/04/03 00:35:23;;;;;;;;;;;;;;;3.78;75.71;100157.65;115311;1204;24347;-58
2021/04/03 00:37:51;;;;;;;;;;;;;;;3.76;75.51;100153.77;115155;1205;25834;-57
2021/04/03 00:40:21;;;;;;;;;;;;;;;3.74;75.52;100154.20;115316;1204;24642;-57
2021/04/03 00:42:49;;;;;;;;;;;;;;;3.74;75.80;100153.42;115223;1204;21836;-57
2021/04/03 00:45:17;;;;;;;;;;;;;;;3.72;75.88;100142.82;115209;1204;21608;-56
2021/04/03 00:47:45;;;;;;;;;;;;;;;3.72;75.90;100140.06;115265;1204;21696;-57
2021/04/03 00:50:14;;;;;;;;;;;;;;;3.72;76.13;100140.06;115203;1202;25809;-57
2021/04/03 00:52:42;;;;;;;;;;;;;;;3.72;75.99;100151.11;115351;1202;23204;-57
2021/04/03 00:55:11;;;;;;;;;;;;;;;3.74;76.30;100145.92;115059;1204;21666;-55
2021/04/03 00:57:39;;;;;;;;;;;;;;;3.74;76.19;100137.64;115304;1205;21676;-58
2021/04/03 01:00:08;;;;;;;;;;;;;;;3.76;76.95;100143.50;115093;1204;21739;-58
2021/04/03 01:02:37;;;;;;;;;;;;;;;3.76;76.68;100142.72;115229;1204;25908;-58
2021/04/03 01:05:06;;;;;;;;;;;;;;;3.77;76.85;100147.02;115145;1205;21600;-57
2021/04/03 01:07:34;;;;;;;;;;;;;;;3.78;76.61;100143.84;115420;1204;21604;-58
2021/04/03 01:10:03;;;;;;;;;;;;;;;3.82;76.64;100135.45;115262;1205;21600;-55
2021/04/03 01:12:35;;;;;;;;;;;;;;;3.83;76.87;100135.01;115507;1204;21693;-57
2021/04/03 01:15:07;;;;;;;;;;;;;;;3.86;76.84;100134.16;115341;1202;23012;-56
2021/04/03 01:17:41;;;;;;;;;;;;;;;3.87;76.89;100132.92;115233;1203;23201;-58
2021/04/03 01:20:16;;;;;;;;;;;;;;;3.89;76.97;100129.75;115245;1204;21599;-56
2021/04/03 01:22:56;;;;;;;;;;;;;;;3.90;77.17;100123.00;115200;1204;21740;-56
2021/04/03 01:25:30;;;;;;;;;;;;;;;3.93;76.89;100131.17;115212;1204;21600;-56
2021/04/03 01:28:11;;;;;;;;;;;;;;;3.94;77.18;100127.22;115166;1204;21600;-58
2021/04/03 01:30:39;;;;;;;;;;;;;;;3.96;77.05;100119.27;115106;1203;23204;-58
2021/04/03 01:33:09;;;;;;;;;;;;;;;3.97;77.30;100111.77;115131;1204;21631;-58
2021/04/03 01:35:38;;;;;;;;;;;;;;;3.96;77.30;100104.68;115515;1204;21605;-58
2021/04/03 01:38:08;;;;;;;;;;;;;;;3.96;77.63;100108.22;115198;1204;21601;-58
2021/04/03 01:40:36;;;;;;;;;;;;;;;3.96;77.81;100108.22;115244;1205;25816;-57
2021/04/03 01:43:08;;;;;;;;;;;;;;;3.96;77.69;100113.75;115244;1204;21612;-57
2021/04/03 01:45:36;;;;;;;;;;;;;;;3.97;77.81;100106.24;115274;1204;21608;-57
2021/04/03 01:48:06;;;;;;;;;;;;;;;3.97;77.61;100106.99;115190;1205;26011;-57
2021/04/03 01:50:34;;;;;;;;;;;;;;;3.99;77.78;100096.28;115344;1203;23250;-57
2021/04/03 01:53:02;;;;;;;;;;;;;;;3.99;77.78;100096.28;115204;1205;24466;-55
2021/04/03 01:55:31;;;;;;;;;;;;;;;3.98;77.94;100091.98;115491;1204;21600;-58
2021/04/03 01:57:59;;;;;;;;;;;;;;;3.98;77.63;100093.97;115321;1202;23205;-58
2021/04/03 02:00:28;;;;;;;;;;;;;;;4.00;77.84;100105.35;115279;1204;24732;-56
2021/04/03 02:02:57;;;;;;;;;;;;;;;4.00;77.70;100106.13;115232;1204;21759;-55
2021/04/03 02:05:25;;;;;;;;;;;;;;;4.02;77.63;100100.16;115236;1204;21756;-58
2021/04/03 02:07:54;;;;;;;;;;;;;;;4.03;77.63;100101.73;115214;1205;25848;-58
2021/04/03 02:10:23;;;;;;;;;;;;;;;4.03;77.98;100098.97;115069;1205;21672;-57
2021/04/03 02:12:51;;;;;;;;;;;;;;;4.05;77.86;100097.32;117890;1204;21600;-58
2021/04/03 02:15:19;;;;;;;;;;;;;;;4.06;78.06;100087.80;115162;1204;24319;-56
2021/04/03 02:17:48;;;;;;;;;;;;;;;4.08;77.97;100092.88;115253;1204;21668;-58
2021/04/03 02:20:16;;;;;;;;;;;;;;;4.09;78.25;100089.70;115277;1204;21604;-57
2021/04/03 02:22:45;;;;;;;;;;;;;;;4.09;78.20;100086.16;115230;1197;23562;-55
2021/04/03 02:25:13;;;;;;;;;;;;;;;4.10;78.10;100090.45;115210;1204;21608;-57
2021/04/03 02:27:41;;;;;;;;;;;;;;;4.10;78.20;100076.64;115228;1204;25838;-57
2021/04/03 02:30:15;;;;;;;;;;;;;;;4.13;78.43;100088.81;115015;1204;21669;-58
2021/04/03 02:32:44;;;;;;;;;;;;;;;4.13;78.47;100086.05;115147;1196;24335;-57
2021/04/03 02:35:13;;;;;;;;;;;;;;;4.14;78.44;100082.84;115239;1204;24649;-55
2021/04/03 02:37:41;;;;;;;;;;;;;;;4.14;78.41;100080.08;115286;1203;23237;-57
2021/04/03 02:40:10;;;;;;;;;;;;;;;4.16;78.35;100082.42;115181;1204;21911;-58
2021/04/03 02:42:41;;;;;;;;;;;;;;;4.16;78.22;100083.17;115363;1204;24347;-57
2021/04/03 02:45:10;;;;;;;;;;;;;;;4.16;78.37;100085.94;115277;1204;21601;-57
2021/04/03 02:47:40;;;;;;;;;;;;;;;4.17;78.49;100076.45;115283;1204;24645;-56
2021/04/03 02:50:09;;;;;;;;;;;;;;;4.17;78.54;100083.95;115378;1204;21743;-58
2021/04/03 02:52:37;;;;;;;;;;;;;;;4.18;78.57;100085.52;115389;1204;21600;-55
2021/04/03 02:55:07;;;;;;;;;;;;;;;4.18;79.10;100085.52;115242;1203;23242;-57
2021/04/03 02:57:37;;;;;;;;;;;;;;;4.17;79.09;100081.97;115274;1204;21743;-57
2021/04/03 03:00:06;;;;;;;;;;;;;;;4.18;79.40;100082.75;115275;1204;21613;-57
2021/04/03 03:02:34;;;;;;;;;;;;;;;4.18;78.80;100082.75;115460;1204;24610;-57
2021/04/03 03:05:04;;;;;;;;;;;;;;;4.19;78.83;100084.29;115256;1204;21671;-60
2021/04/03 03:07:33;;;;;;;;;;;;;;;4.18;78.79;100082.75;115468;1205;24322;-58
2021/04/03 03:10:01;;;;;;;;;;;;;;;4.18;79.03;100083.51;115540;1204;21613;-57
2021/04/03 03:12:30;;;;;;;;;;;;;;;4.16;78.83;100085.94;115633;1204;21604;-57
2021/04/03 03:15:00;;;;;;;;;;;;;;;4.14;79.19;100085.60;115563;1204;21584;-58
2021/04/03 03:17:29;;;;;;;;;;;;;;;4.12;79.21;100082.50;115537;1204;21618;-56
2021/04/03 03:19:59;;;;;;;;;;;;;;;4.08;79.39;100079.85;115571;1204;21614;-57
2021/04/03 03:22:27;;;;;;;;;;;;;;;4.07;79.50;100088.59;115523;1204;21629;-59
2021/04/03 03:24:55;;;;;;;;;;;;;;;4.05;79.47;100088.25;115625;1204;21589;-57
2021/04/03 03:27:25;;;;;;;;;;;;;;;4.02;79.35;100084.38;115503;1204;21581;-57
2021/04/03 03:29:53;;;;;;;;;;;;;;;4.00;79.74;100077.73;115800;1204;21585;-56
2021/04/03 03:32:20;;;;;;;;;;;;;;;3.99;79.71;100092.77;115497;1204;25855;-56
2021/04/03 03:34:49;;;;;;;;;;;;;;;3.98;79.55;100089.23;115689;1204;24465;-58
2021/04/03 03:37:17;;;;;;;;;;;;;;;3.97;79.53;100081.38;115511;1204;21614;-57
2021/04/03 03:39:45;;;;;;;;;;;;;;;3.98;79.67;100091.20;115624;1204;21603;-58
2021/04/03 03:42:14;;;;;;;;;;;;;;;3.96;79.87;100090.87;115545;1204;21671;-55
2021/04/03 03:44:42;;;;;;;;;;;;;;;3.96;79.66;100094.41;115650;1201;22912;-58
2021/04/03 03:47:10;;;;;;;;;;;;;;;3.95;80.49;100103.89;115647;1204;21743;-57
2021/04/03 03:49:38;;;;;;;;;;;;;;;3.94;79.96;100091.31;115588;1204;21600;-59
2021/04/03 03:52:07;;;;;;;;;;;;;;;3.93;79.99;100103.56;115589;1204;21953;-57
2021/04/03 03:54:34;;;;;;;;;;;;;;;3.93;79.92;100109.08;115694;1204;22333;-58
2021/04/03 03:57:02;;;;;;;;;;;;;;;3.92;80.04;100104.79;115644;1204;21631;-57
2021/04/03 03:59:31;;;;;;;;;;;;;;;3.90;80.29;100103.67;115690;1204;24629;-58
2021/04/03 04:01:58;;;;;;;;;;;;;;;3.89;80.40;100110.42;115539;1204;21639;-61
2021/04/03 04:04:26;;;;;;;;;;;;;;;3.88;80.17;100106.88;115561;1205;21682;-58
2021/04/03 04:06:54;;;;;;;;;;;;;;;3.87;80.31;100110.83;115602;1204;21775;-59
2021/04/03 04:09:22;;;;;;;;;;;;;;;3.85;80.30;100107.73;115570;1204;21666;-57
2021/04/03 04:11:50;;;;;;;;;;;;;;;3.85;80.51;100112.47;115651;1204;21674;-56
2021/04/03 04:14:18;;;;;;;;;;;;;;;3.86;80.27;100116.80;115639;1204;24356;-57
2021/04/03 04:16:45;;;;;;;;;;;;;;;3.86;80.68;100117.58;115574;1204;21600;-56
2021/04/03 04:19:13;;;;;;;;;;;;;;;3.85;80.79;100113.26;115633;1204;21601;-57
2021/04/03 04:21:41;;;;;;;;;;;;;;;3.85;80.67;100123.52;115653;1203;21639;-56
2021/04/03 04:24:09;;;;;;;;;;;;;;;3.83;80.76;100123.97;115610;1204;21773;-58
2021/04/03 04:26:37;;;;;;;;;;;;;;;3.83;81.69;100132.25;115581;1203;21601;-57
2021/04/03 04:29:04;;;;;;;;;;;;;;;3.81;81.12;100128.36;115626;1204;21679;-60
2021/04/03 04:31:32;;;;;;;;;;;;;;;3.78;81.27;100127.27;115603;1204;25632;-56
2021/04/03 04:34:00;;;;;;;;;;;;;;;3.77;81.47;100127.69;115674;1204;21608;-59
2021/04/03 04:36:28;;;;;;;;;;;;;;;3.76;81.23;100131.67;115615;1203;21867;-57
2021/04/03 04:38:56;;;;;;;;;;;;;;;3.76;81.15;100143.50;115758;1196;24654;-57
2021/04/03 04:41:24;;;;;;;;;;;;;;;3.76;80.89;100132.45;115588;1204;26142;-59
2021/04/03 04:43:53;;;;;;;;;;;;;;;3.76;81.29;100135.22;115560;1204;21608;-59
2021/04/03 04:46:21;;;;;;;;;;;;;;;3.77;81.25;100135.97;115667;1202;23201;-56
2021/04/03 04:48:49;;;;;;;;;;;;;;;3.76;81.68;100134.44;115603;1204;21745;-58
2021/04/03 04:51:16;;;;;;;;;;;;;;;3.75;82.27;100144.70;115579;1204;21605;-59
2021/04/03 04:53:44;;;;;;;;;;;;;;;3.75;81.73;100141.94;115525;1204;21639;-56
2021/04/03 04:56:11;;;;;;;;;;;;;;;3.77;81.34;100142.28;115531;1204;22871;-59
2021/04/03 04:58:39;;;;;;;;;;;;;;;3.78;81.41;100148.58;115545;1202;25602;-57
2021/04/03 05:01:07;;;;;;;;;;;;;;;3.78;81.06;100149.36;115532;1204;21576;-57
2021/04/03 05:03:34;;;;;;;;;;;;;;;3.79;80.51;100150.90;115577;1204;21786;-61
2021/04/03 05:06:02;;;;;;;;;;;;;;;3.82;80.55;100152.02;115758;1204;26965;-56
2021/04/03 05:08:30;;;;;;;;;;;;;;;3.84;80.24;100157.88;115800;1204;24977;-58
2021/04/03 05:10:58;;;;;;;;;;;;;;;3.85;80.19;100157.44;115599;1204;21763;-58
2021/04/03 05:13:26;;;;;;;;;;;;;;;3.87;80.04;100160.54;115543;1204;21589;-59
2021/04/03 05:15:57;;;;;;;;;;;;;;;3.89;80.12;100160.88;115615;1204;21743;-57
2021/04/03 05:18:25;;;;;;;;;;;;;;;3.91;79.96;100161.22;115662;1204;21886;-59
2021/04/03 05:20:52;;;;;;;;;;;;;;;3.93;80.01;100166.33;115574;1204;21598;-57
2021/04/03 05:23:20;;;;;;;;;;;;;;;3.94;80.13;100167.86;115518;1202;23211;-56
2021/04/03 05:25:48;;;;;;;;;;;;;;;3.96;79.83;100174.51;115598;1204;21891;-57
2021/04/03 05:28:16;;;;;;;;;;;;;;;3.96;79.96;100171.75;115527;1204;21672;-58
2021/04/03 05:30:44;;;;;;;;;;;;;;;3.97;79.46;100169.77;115618;1204;24405;-60
2021/04/03 05:33:12;;;;;;;;;;;;;;;3.97;79.83;100173.28;115661;1205;21615;-57
2021/04/03 05:35:40;;;;;;;;;;;;;;;3.98;79.60;100166.56;115506;1204;24354;-57
2021/04/03 05:38:07;;;;;;;;;;;;;;;3.98;79.71;100169.33;115551;1204;21601;-60
2021/04/03 05:40:35;;;;;;;;;;;;;;;3.99;79.61;100179.14;115527;1204;21784;-61
2021/04/03 05:43:04;;;;;;;;;;;;;;;3.99;79.44;100186.68;115699;1204;21607;-59
2021/04/03 05:45:36;;;;;;;;;;;;;;;3.97;79.14;100183.58;115552;1205;21743;-58
2021/04/03 05:48:04;;;;;;;;;;;;;;;3.96;79.24;100187.53;115623;1204;21690;-58
2021/04/03 05:50:32;;;;;;;;;;;;;;;3.95;79.46;100191.53;115646;1204;21589;-59
2021/04/03 05:52:59;;;;;;;;;;;;;;;3.94;79.29;100204.55;115501;1204;24582;-57
2021/04/03 05:55:27;;;;;;;;;;;;;;;3.93;79.38;100197.46;115559;1200;21668;-56
2021/04/03 05:57:55;;;;;;;;;;;;;;;3.94;79.62;100201.01;115646;1204;24346;-55
2021/04/03 06:00:24;;;;;;;;;;;;;;;3.94;79.13;100195.48;115486;1204;21608;-52
2021/04/03 06:02:52;;;;;;;;;;;;;;;3.93;79.12;100199.47;115606;1204;21844;-59
2021/04/03 06:05:20;;;;;;;;;;;;;;;3.91;79.18;100199.13;115656;1204;24689;-58
2021/04/03 06:07:47;;;;;;;;;;;;;;;3.90;79.23;100212.16;115473;1204;21668;-59
2021/04/03 06:10:15;;;;;;;;;;;;;;;3.89;78.86;100213.35;115439;1204;21598;-58
2021/04/03 06:12:46;;;;;;;;;;;;;;;3.89;79.05;100212.59;115637;1204;25873;-59
2021/04/03 06:15:16;;;;;;;;;;;;;;;3.88;79.05;100219.31;115393;1204;25895;-59
2021/04/03 06:17:45;;;;;;;;;;;;;;;3.87;79.16;100215.77;115599;1204;21714;-60
2021/04/03 06:20:13;;;;;;;;;;;;;;;3.85;78.76;100223.72;115692;1204;21883;-58
2021/04/03 06:22:42;;;;;;;;;;;;;;;3.84;78.72;100227.70;115458;1204;21707;-58
2021/04/03 06:25:11;;;;;;;;;;;;;;;3.83;78.72;100230.88;115513;1204;21600;-59
2021/04/03 06:27:39;;;;;;;;;;;;;;;3.83;79.20;100228.90;115541;1204;21630;-59
2021/04/03 06:30:15;;;;;;;;;;;;;;;3.87;78.61;100237.86;115492;1204;21695;-58
2021/04/03 06:32:45;;;;;;;;;;;;;;;3.89;78.61;100238.20;115491;1204;21606;-59
2021/04/03 06:35:22;;;;;;;;;;;;;;;3.90;78.74;100245.30;115440;1202;23384;-58
2021/04/03 06:37:50;;;;;;;;;;;;;;;3.93;78.92;100238.14;115546;1204;21589;-60
2021/04/03 06:40:20;;;;;;;;;;;;;;;3.97;78.73;100236.81;115572;1201;23214;-60
2021/04/03 06:42:49;;;;;;;;;;;;;;;4.01;78.68;100239.50;115599;1204;21671;-59
2021/04/03 06:45:25;;;;;;;;;;;;;;;4.06;78.98;100238.95;115508;1204;24318;-58
2021/04/03 06:47:55;;;;;;;;;;;;;;;4.10;78.25;100251.47;115632;1204;21863;-59
2021/04/03 06:50:25;;;;;;;;;;;;;;;4.14;78.25;100247.85;115481;1204;24656;-55
2021/04/03 06:52:53;;;;;;;;;;;;;;;4.17;78.04;100260.78;115585;1204;21811;-59
2021/04/03 06:55:24;;;;;;;;;;;;;;;4.19;78.82;100259.14;115457;1204;21611;-56
2021/04/03 06:57:58;;;;;;;;;;;;;;;4.19;78.45;100267.43;115533;1200;24312;-56
2021/04/03 07:00:26;;;;;;;;;;;;;;;4.17;78.45;100271.83;115528;1204;21600;-57
2021/04/03 07:02:56;;;;;;;;;;;;;;;4.16;78.20;100273.06;115689;1204;21739;-58
2021/04/03 07:05:32;;;;;;;;;;;;;;;4.18;78.56;100276.91;115878;1204;24541;-64
2021/04/03 07:08:02;;;;;;;;;;;;;;;4.22;78.10;100282.37;115778;1204;24315;-57
2021/04/03 07:10:31;;;;;;;;;;;;;;;4.24;77.99;100279.95;115485;1204;21756;-58
2021/04/03 07:12:59;;;;;;;;;;;;;;;4.26;78.50;100291.34;115434;1204;21806;-57
2021/04/03 07:15:31;;;;;;;;;;;;;;;4.30;78.00;100284.52;115556;1204;21572;-57
2021/04/03 07:18:07;;;;;;;;;;;;;;;4.37;77.77;100289.84;115646;1204;21601;-59
2021/04/03 07:20:36;;;;;;;;;;;;;;;4.40;77.49;100297.27;115663;1204;21795;-58
2021/04/03 07:23:06;;;;;;;;;;;;;;;4.47;77.80;100307.36;115466;1204;21808;-58
2021/04/03 07:25:36;;;;;;;;;;;;;;;4.56;77.58;100302.75;115569;1205;21601;-59
2021/04/03 07:28:04;;;;;;;;;;;;;;;4.69;77.43;100305.56;115681;1204;21601;-59
2021/04/03 07:30:39;;;;;;;;;;;;;;;4.83;77.69;100307.92;116640;1196;21766;-59
2021/04/03 07:33:08;;;;;;;;;;;;;;;5.02;77.62;100315.28;117291;1203;23715;-59
2021/04/03 07:35:37;;;;;;;;;;;;;;;5.17;76.53;100326.71;115596;1200;24215;-58
2021/04/03 07:38:08;;;;;;;;;;;;;;;5.13;75.73;100326.80;115379;1204;25959;-61
2021/04/03 07:40:37;;;;;;;;;;;;;;;5.06;76.10;100340.06;115484;1204;21601;-60
2021/04/03 07:43:25;;;;;;;;;;;;;;;4.97;75.95;100342.69;115478;1204;21600;-60
2021/04/03 07:45:53;;;;;;;;;;;;;;;4.88;75.96;100348.89;115513;1203;25815;-58
2021/04/03 07:48:39;;;;;;;;;;;;;;;4.80;75.18;100353.06;115555;1204;26990;-58
2021/04/03 07:51:06;;;;;;;;;;;;;;;4.70;75.24;100360.42;115391;1204;21735;-56
2021/04/03 07:53:35;;;;;;;;;;;;;;;4.73;76.07;100367.86;115349;1204;21762;-61
2021/04/03 07:56:03;;;;;;;;;;;;;;;4.79;75.32;100368.88;115526;1204;21676;-62
2021/04/03 07:58:31;;;;;;;;;;;;;;;4.83;75.13;100368.77;115539;1204;21610;-62
2021/04/03 08:01:00;;;;;;;;;;;;;;;4.81;74.57;100379.50;115678;1204;24560;-62
2021/04/03 08:03:28;;;;;;;;;;;;;;;4.79;73.80;100379.16;115498;1203;22846;-60
2021/04/03 08:06:00;;;;;;;;;;;;;;;4.77;74.55;100378.81;115560;1204;21662;-61
2021/04/03 08:08:28;;;;;;;;;;;;;;;4.80;74.94;100386.26;115551;1204;21585;-60
2021/04/03 08:11:10;;;;;;;;;;;;;;;4.82;72.44;100387.35;115373;1204;21597;-60
2021/04/03 08:13:40;;;;;;;;;;;;;;;4.83;73.20;100396.43;115338;1204;22204;-59
2021/04/03 08:16:09;;;;;;;;;;;;;;;4.85;73.25;100403.09;115243;1204;21913;-61
2021/04/03 08:18:37;;;;;;;;;;;;;;;4.89;74.02;100398.23;115558;1204;21743;-56
2021/04/03 08:21:06;;;;;;;;;;;;;;;4.99;73.80;100396.38;115504;1200;23013;-57
2021/04/03 08:23:38;;;;;;;;;;;;;;;5.13;73.32;100397.98;115751;1204;21814;-56
2021/04/03 08:26:06;;;;;;;;;;;;;;;5.22;72.91;100396.13;115715;1204;21611;-57
2021/04/03 08:28:34;;;;;;;;;;;;;;;5.27;71.18;100403.12;115621;1204;25844;-58
2021/04/03 08:31:13;;;;;;;;;;;;;;;5.31;72.73;100410.11;115511;1204;21601;-58
2021/04/03 08:33:41;;;;;;;;;;;;;;;5.41;71.99;100411.79;115622;1197;23986;-56
2021/04/03 08:36:13;;;;;;;;;;;;;;;5.50;71.87;100402.84;115527;1204;21612;-56
2021/04/03 08:38:43;;;;;;;;;;;;;;;5.50;70.45;100414.67;115671;1204;21672;-58
2021/04/03 08:41:15;;;;;;;;;;;;;;;5.47;71.23;100420.32;115562;1204;21627;-56
2021/04/03 08:43:44;;;;;;;;;;;;;;;5.44;71.90;100419.20;115588;1205;21673;-58
2021/04/03 09:44:51;;;;;;;;;;;;;;;7.12;68.37;100458.56;115471;1203;21624;-59
2021/04/03 09:47:20;;;;;;;;;;;;;;;7.20;68.87;100455.09;115495;1204;21672;-58
2021/04/03 09:49:47;;;;;;;;;;;;;;;7.25;67.06;100459.30;115490;1204;21575;-60
2021/04/03 09:52:16;;;;;;;;;;;;;;;7.28;67.39;100453.61;115603;1204;21607;-58
2021/04/03 09:54:45;;;;;;;;;;;;;;;7.33;67.56;100468.92;115561;1204;23751;-59
2021/04/03 09:57:13;;;;;;;;;;;;;;;7.29;66.43;100466.28;115486;1204;21840;-60
2021/04/03 09:59:42;;;;;;;;;;;;;;;7.15;65.10;100472.34;115584;1205;24353;-58
2021/04/03 10:02:11;;;;;;;;;;;;;;;7.10;66.92;100461.80;115541;1204;21608;-58
2021/04/03 10:04:39;;;;;;;;;;;;;;;7.14;67.59;100468.00;115899;1204;21689;-58
2021/04/03 10:07:07;;;;;;;;;;;;;;;7.23;66.71;100467.30;115595;1204;21817;-60
2021/04/03 10:09:35;;;;;;;;;;;;;;;7.30;67.18;100461.52;115795;1204;24346;-61
2021/04/03 10:12:04;;;;;;;;;;;;;;;7.37;66.89;100457.70;115498;1204;21825;-59
2021/04/03 10:14:31;;;;;;;;;;;;;;;7.42;67.04;100459.89;115581;1204;21608;-58
2021/04/03 10:16:59;;;;;;;;;;;;;;;7.45;66.20;100464.55;115596;1204;21600;-60
2021/04/03 10:19:27;;;;;;;;;;;;;;;7.37;65.66;100466.04;115589;1204;21608;-62
2021/04/03 10:21:55;;;;;;;;;;;;;;;7.37;65.90;100466.04;115705;1204;22589;-58
2021/04/03 10:24:23;;;;;;;;;;;;;;;7.46;66.53;100466.09;115559;1204;21672;-58
2021/04/03 10:26:52;;;;;;;;;;;;;;;7.53;63.93;100466.59;115396;1204;21607;-59
2021/04/03 10:29:19;;;;;;;;;;;;;;;7.52;64.54;100469.83;115486;1204;21668;-59
2021/04/03 10:31:47;;;;;;;;;;;;;;;7.49;63.98;100463.17;115337;1204;24898;-59
2021/04/03 10:34:15;;;;;;;;;;;;;;;7.44;62.98;100468.55;115585;1204;25992;-56
2021/04/03 10:36:43;;;;;;;;;;;;;;;7.41;63.19;100469.46;115556;1204;21700;-58
2021/04/03 10:39:11;;;;;;;;;;;;;;;7.41;62.54;100463.91;115457;1204;21589;-58
2021/04/03 10:41:39;;;;;;;;;;;;;;;7.42;62.04;100460.67;117476;1204;21422;-60
2021/04/03 10:44:10;;;;;;;;;;;;;;;7.45;63.60;100459.75;118683;1203;22463;-61
2021/04/03 10:46:39;;;;;;;;;;;;;;;7.53;63.48;100454.73;117550;1204;22075;-60
2021/04/03 10:49:10;;;;;;;;;;;;;;;7.59;61.51;100456.47;118698;1204;21434;-60
2021/04/03 10:51:38;;;;;;;;;;;;;;;7.67;61.44;100456.97;118714;1204;22549;-59
2021/04/03 10:54:07;;;;;;;;;;;;;;;7.73;61.17;100458.71;118601;1204;22190;-61
2021/04/03 10:56:36;;;;;;;;;;;;;;;7.79;61.61;100445.77;118711;1203;22147;-62
2021/04/03 10:59:04;;;;;;;;;;;;;;;7.87;62.27;100455.39;118709;1204;21418;-61
2021/04/03 11:01:32;;;;;;;;;;;;;;;7.96;62.01;100447.11;118685;1204;21431;-60
2021/04/03 11:04:00;;;;;;;;;;;;;;;8.04;61.34;100444.81;118715;1204;22039;-60
2021/04/03 11:06:28;;;;;;;;;;;;;;;8.16;60.56;100449.49;118679;1204;21455;-61
2021/04/03 11:08:55;;;;;;;;;;;;;;;8.24;59.16;100447.20;118705;1204;21510;-62
2021/04/03 11:11:23;;;;;;;;;;;;;;;8.21;59.32;100439.78;118734;1200;21476;-60
2021/04/03 11:13:51;;;;;;;;;;;;;;;8.32;59.95;100440.17;118726;1205;21469;-62
2021/04/03 11:16:19;;;;;;;;;;;;;;;8.34;58.66;100432.89;118665;1199;21447;-60
2021/04/03 11:18:46;;;;;;;;;;;;;;;8.37;59.49;100440.33;118625;1204;22158;-61
2021/04/03 11:21:14;;;;;;;;;;;;;;;8.42;59.00;100438.96;118715;1204;21447;-61
2021/04/03 11:23:43;;;;;;;;;;;;;;;8.50;58.98;100438.22;118727;1204;21473;-61
2021/04/03 11:26:10;;;;;;;;;;;;;;;8.56;57.34;100430.02;118687;1203;22169;-60
2021/04/03 11:28:42;;;;;;;;;;;;;;;8.60;57.90;100433.44;118720;1204;21873;-61
2021/04/03 11:31:09;;;;;;;;;;;;;;;8.60;57.56;100442.56;118757;1203;21453;-56
2021/04/03 11:33:37;;;;;;;;;;;;;;;8.59;57.62;100429.87;118713;1204;21468;-61
2021/04/03 11:36:06;;;;;;;;;;;;;;;8.60;58.58;100439.00;118714;1200;21466;-60
2021/04/03 11:38:34;;;;;;;;;;;;;;;8.60;57.71;100437.00;118711;1205;21504;-61
2021/04/03 11:41:02;;;;;;;;;;;;;;;8.59;57.71;100423.52;118618;1197;21472;-58
2021/04/03 11:43:31;;;;;;;;;;;;;;;8.59;57.23;100424.30;118569;1204;21514;-59
2021/04/03 11:46:01;;;;;;;;;;;;;;;8.64;57.31;100423.70;118704;1203;21474;-60
2021/04/03 11:48:29;;;;;;;;;;;;;;;8.74;56.98;100427.27;118721;1204;22542;-61
2021/04/03 11:50:57;;;;;;;;;;;;;;;8.77;55.56;100429.14;118725;1204;22291;-61
2021/04/03 11:53:25;;;;;;;;;;;;;;;8.73;55.82;100436.87;118690;1204;21482;-61
2021/04/03 11:55:53;;;;;;;;;;;;;;;8.60;55.54;100427.87;118702;1203;21435;-61
2021/04/03 11:58:21;;;;;;;;;;;;;;;8.47;55.32;100430.77;118740;1204;21455;-60
2021/04/03 12:00:48;;;;;;;;;;;;;;;8.38;55.35;100432.77;118722;1204;21461;-61
2021/04/03 12:03:16;;;;;;;;;;;;;;;8.31;56.27;100436.61;118722;1201;22011;-61
2021/04/03 12:05:44;;;;;;;;;;;;;;;8.27;57.23;100435.20;118699;1205;21443;-61
2021/04/03 12:08:12;;;;;;;;;;;;;;;8.13;58.41;100458.77;118669;1203;22144;-59
2021/04/03 12:10:40;;;;;;;;;;;;;;;7.89;58.12;100466.05;115530;1204;22673;-61
2021/04/03 12:13:08;;;;;;;;;;;;;;;7.67;58.90;100451.41;115551;1200;24773;-60
2021/04/03 12:15:38;;;;;;;;;;;;;;;7.51;58.76;100449.60;115499;1205;21607;-60
2021/04/03 12:18:06;;;;;;;;;;;;;;;7.45;58.72;100456.22;115494;1204;24427;-62
2021/04/03 12:20:34;;;;;;;;;;;;;;;7.38;58.25;100457.25;115600;1204;21605;-59
2021/04/03 12:23:03;;;;;;;;;;;;;;;7.31;58.72;100458.27;115387;1204;21629;-54
2021/04/03 12:25:30;;;;;;;;;;;;;;;7.29;59.36;100465.50;115418;1204;21753;-57
2021/04/03 12:27:58;;;;;;;;;;;;;;;7.26;60.17;100463.64;115202;1204;21608;-59
2021/04/03 12:30:26;;;;;;;;;;;;;;;7.21;60.56;100486.42;115362;1204;24441;-62
2021/04/03 12:32:53;;;;;;;;;;;;;;;7.00;62.25;100503.80;115645;1204;21671;-57
2021/04/03 12:35:21;;;;;;;;;;;;;;;6.52;64.10;100510.55;115312;1204;21601;-57
2021/04/03 12:37:50;;;;;;;;;;;;;;;6.01;64.88;100508.98;115228;1204;25787;-62
2021/04/03 12:40:18;;;;;;;;;;;;;;;5.64;66.62;100525.06;115743;1204;21600;-62
2021/04/03 12:42:46;;;;;;;;;;;;;;;5.36;68.40;100520.29;115387;1204;21608;-58
2021/04/03 12:45:14;;;;;;;;;;;;;;;5.21;67.84;100534.95;115383;1204;24608;-57
2021/04/03 12:47:42;;;;;;;;;;;;;;;5.02;70.21;100539.39;115432;1204;21743;-59
2021/04/03 12:50:12;;;;;;;;;;;;;;;4.81;69.34;100542.69;115442;1204;24316;-59
2021/04/03 12:52:40;;;;;;;;;;;;;;;4.64;69.62;100541.91;115433;1203;23256;-60
2021/04/03 12:55:09;;;;;;;;;;;;;;;4.52;70.86;100556.42;115602;1198;24560;-60
2021/04/03 12:57:37;;;;;;;;;;;;;;;4.42;70.58;100553.89;115508;1204;21607;-61
2021/04/03 13:00:07;;;;;;;;;;;;;;;4.32;70.83;100560.45;115458;1204;21622;-61
2021/04/03 13:02:36;;;;;;;;;;;;;;;4.21;70.92;100554.36;115476;1202;23020;-62
2021/04/03 13:05:06;;;;;;;;;;;;;;;4.15;72.86;100553.31;115411;1204;24678;-58
2021/04/03 13:07:34;;;;;;;;;;;;;;;4.09;71.17;100545.55;115567;1203;21600;-59
2021/04/03 13:10:01;;;;;;;;;;;;;;;4.04;71.75;100543.27;115398;1204;21679;-59
2021/04/03 13:12:29;;;;;;;;;;;;;;;4.00;72.38;100536.27;115266;1200;23243;-58
2021/04/03 13:14:57;;;;;;;;;;;;;;;3.94;72.24;100538.76;115459;1204;25965;-61
2021/04/03 13:17:25;;;;;;;;;;;;;;;3.96;72.32;100528.06;115360;1204;21744;-62
2021/04/03 13:19:53;;;;;;;;;;;;;;;3.99;72.76;100526.44;115334;1204;21639;-60
2021/04/03 13:22:20;;;;;;;;;;;;;;;4.04;72.77;100517.63;115365;1204;21743;-62
2021/04/03 13:24:48;;;;;;;;;;;;;;;4.08;72.24;100505.30;115317;1203;25915;-59
2021/04/03 13:27:16;;;;;;;;;;;;;;;4.16;72.63;100510.67;115243;1204;21612;-60
2021/04/03 13:29:43;;;;;;;;;;;;;;;4.22;72.83;100504.19;115276;1204;21592;-62
2021/04/03 13:32:11;;;;;;;;;;;;;;;4.27;73.22;100489.87;115111;1204;21601;-60
2021/04/03 13:34:39;;;;;;;;;;;;;;;4.32;73.16;100480.30;115048;1204;25014;-61
2021/04/03 13:37:07;;;;;;;;;;;;;;;4.37;73.31;100472.25;115046;1203;24370;-61
2021/04/03 13:39:35;;;;;;;;;;;;;;;4.41;73.18;100461.89;114987;1204;22956;-59
2021/04/03 13:42:03;;;;;;;;;;;;;;;4.52;73.47;100461.63;114899;1204;21679;-59